Time;durP1;ratioP1;P1;durP2;ratioP2;P2;SDS_P1;SDS_P2;PMS_P1;PMS_P2;Temp;Humidity;BMP_temperature;BMP_pressure;BME280_temperature;BME280_humidity;BME280_pressure;Samples;Min_cycle;Max_cycle;Signal;HPM_P1;HPM_P2
2024/04/04 00:02:02;;;;;;;1.58;1.08;;;;;;;-0.39;100.00;100902.06;5069448;28;20395;-75
2024/04/04 00:04:28;;;;;;;3.85;1.33;;;;;;;-0.39;100.00;100896.78;5069474;28;20124;-79
2024/04/04 00:06:54;;;;;;;3.35;1.20;;;;;;;-0.51;100.00;100869.53;5070930;28;20494;-75
2024/04/04 00:09:20;;;;;;;3.03;1.20;;;;;;;-0.33;100.00;100898.88;5069449;28;20025;-74
2024/04/04 00:11:45;;;;;;;3.55;1.08;;;;;;;-0.48;100.00;100870.09;5053148;28;20375;-79
2024/04/04 00:14:10;;;;;;;2.63;1.27;;;;;;;-0.59;100.00;100851.66;5069470;28;20088;-76
2024/04/04 00:16:37;;;;;;;3.50;1.20;;;;;;;-0.27;100.00;100886.00;5069455;28;20123;-71
2024/04/04 00:19:03;;;;;;;3.30;1.00;;;;;;;-0.62;100.00;100841.34;5070394;28;20040;-77
2024/04/04 00:21:29;;;;;;;2.22;0.85;;;;;;;-0.30;100.00;100896.00;5069668;28;20395;-79
2024/04/04 00:23:56;;;;;;;2.28;1.00;;;;;;;-0.39;100.00;100878.25;5057355;28;20115;-75
2024/04/04 00:26:22;;;;;;;2.88;1.10;;;;;;;-0.26;100.00;100890.34;5056685;28;20029;-77
2024/04/04 00:28:48;;;;;;;1.95;1.30;;;;;;;-0.30;100.00;100882.78;5057346;28;20047;-76
2024/04/04 00:31:14;;;;;;;2.70;1.30;;;;;;;-0.28;100.00;100880.84;5073476;28;20033;-75
2024/04/04 00:33:39;;;;;;;2.00;1.08;;;;;;;-0.25;100.00;100870.84;5074842;28;20039;-76
2024/04/04 00:36:05;;;;;;;2.45;1.15;;;;;;;-0.28;100.00;100875.56;5056304;28;20090;-75
2024/04/04 00:38:30;;;;;;;2.40;1.05;;;;;;;-0.26;100.00;100876.28;5073446;28;20032;-72
2024/04/04 00:40:56;;;;;;;2.83;1.35;;;;;;;-0.21;100.00;100878.53;5056051;28;20028;-75
2024/04/04 00:43:21;;;;;;;2.13;1.10;;;;;;;-0.25;100.00;100880.59;5056040;28;20033;-80
2024/04/04 00:45:47;;;;;;;1.80;1.17;;;;;;;-0.25;100.00;100883.25;5056265;28;20675;-73
2024/04/04 00:48:12;;;;;;;3.38;1.27;;;;;;;-0.32;100.00;100871.50;5074572;28;20042;-73
2024/04/04 00:50:42;;;;;;;1.90;0.90;;;;;;;-0.34;100.00;100871.59;5073254;28;20082;-71
2024/04/04 00:53:08;;;;;;;2.92;1.15;;;;;;;-0.39;100.00;100870.34;5074659;28;20027;-73
2024/04/04 00:55:33;;;;;;;3.03;1.30;;;;;;;-0.35;100.00;100869.09;5094542;28;20024;-76
2024/04/04 00:57:59;;;;;;;4.30;1.38;;;;;;;-0.31;100.00;100874.00;5075799;28;20547;-78
2024/04/04 01:00:25;;;;;;;2.55;1.20;;;;;;;-0.39;100.00;100880.91;5094454;28;20027;-81
2024/04/04 01:02:54;;;;;;;2.75;1.25;;;;;;;-0.43;100.00;100867.09;5076021;28;20070;-73
2024/04/04 01:05:19;;;;;;;2.72;0.90;;;;;;;-0.36;100.00;100867.44;5075556;28;20499;-72
2024/04/04 01:07:48;;;;;;;1.40;1.15;;;;;;;-0.34;100.00;100873.41;5094239;28;20096;-78
2024/04/04 01:10:15;;;;;;;2.20;1.05;;;;;;;-0.33;100.00;100877.72;5076291;28;20109;-72
2024/04/04 01:12:40;;;;;;;1.55;1.02;;;;;;;-0.39;100.00;100857.13;5076705;28;20070;-75
2024/04/04 01:15:07;;;;;;;3.22;1.10;;;;;;;-0.51;100.00;100861.59;5061287;28;20036;-72
2024/04/04 01:17:33;;;;;;;3.42;1.15;;;;;;;-0.50;100.00;100844.75;5096229;28;20067;-76
2024/04/04 01:19:58;;;;;;;3.05;1.35;;;;;;;-0.35;100.00;100872.59;5096159;28;20028;-76
2024/04/04 01:22:24;;;;;;;3.55;1.40;;;;;;;-0.61;100.00;100835.09;5077703;28;20032;-76
2024/04/04 01:24:49;;;;;;;1.67;1.20;;;;;;;-0.35;100.00;100866.47;5096550;28;20051;-74
2024/04/04 01:27:15;;;;;;;2.55;1.10;;;;;;;-0.44;100.00;100851.34;5062514;28;20020;-83
2024/04/04 01:29:41;;;;;;;2.47;1.27;;;;;;;-0.57;100.00;100835.66;5081309;28;20051;-72
2024/04/04 01:32:06;;;;;;;1.50;1.10;;;;;;;-0.42;100.00;100844.97;5078174;28;20060;-71
2024/04/04 01:34:32;;;;;;;2.45;1.10;;;;;;;-0.38;100.00;100853.50;5098543;28;20447;-73
2024/04/04 01:36:57;;;;;;;3.53;1.10;;;;;;;-0.47;100.00;100849.78;5079406;28;20036;-71
2024/04/04 01:39:23;;;;;;;1.80;1.10;;;;;;;-0.63;100.00;100809.75;5096337;28;20028;-73
2024/04/04 01:41:48;;;;;;;3.00;1.10;;;;;;;-0.39;100.00;100847.38;5079144;28;20036;-71
2024/04/04 01:44:14;;;;;;;1.83;1.00;;;;;;;-0.44;100.00;100823.09;5059047;28;20055;-76
2024/04/04 01:46:40;;;;;;;4.50;1.25;;;;;;;-0.48;100.00;100819.88;5075095;28;20399;-76
2024/04/04 01:49:05;;;;;;;2.38;1.00;;;;;;;-0.37;100.00;100839.31;5075260;28;20035;-78
2024/04/04 01:51:31;;;;;;;1.63;1.00;;;;;;;-0.55;100.00;100810.78;5093486;28;20107;-77
2024/04/04 01:53:56;;;;;;;2.55;1.10;;;;;;;-0.40;100.00;100831.63;5075350;28;20059;-81
2024/04/04 01:56:22;;;;;;;1.63;0.93;;;;;;;-0.58;100.00;100800.47;5092889;28;20444;-75
2024/04/04 01:58:47;;;;;;;1.35;1.05;;;;;;;-0.42;100.00;100833.56;5058700;28;20028;-76
2024/04/04 02:01:12;;;;;;;1.70;1.10;;;;;;;-0.62;100.00;100791.13;5074864;28;20028;-77
2024/04/04 02:03:38;;;;;;;2.15;1.17;;;;;;;-0.48;100.00;100814.59;5075224;28;20108;-73
2024/04/04 02:06:04;;;;;;;2.85;1.10;;;;;;;-0.45;100.00;100805.59;5075192;28;20020;-77
2024/04/04 02:08:29;;;;;;;3.22;1.10;;;;;;;-0.43;100.00;100818.66;5075605;28;20486;-77
2024/04/04 02:10:55;;;;;;;2.53;1.30;;;;;;;-0.37;100.00;100818.16;5074925;28;20054;-78
2024/04/04 02:13:20;;;;;;;1.67;1.17;;;;;;;-0.40;100.00;100818.41;5092895;28;20032;-77
2024/04/04 02:15:45;;;;;;;2.00;1.33;;;;;;;-0.54;100.00;100786.03;5074613;28;20115;-76
2024/04/04 02:18:12;;;;;;;4.63;1.00;;;;;;;-0.36;100.00;100814.56;5092732;28;20467;-73
2024/04/04 02:20:37;;;;;;;1.90;1.20;;;;;;;-0.36;100.00;100806.63;5075065;28;20028;-74
2024/04/04 02:23:03;;;;;;;1.92;1.10;;;;;;;-0.42;100.00;100813.25;5057739;28;20028;-75
2024/04/04 02:25:29;;;;;;;1.48;1.10;;;;;;;-0.41;100.00;100808.81;5074988;28;20111;-74
2024/04/04 02:27:54;;;;;;;2.28;1.45;;;;;;;-0.48;100.00;100784.69;5092502;28;20169;-72
2024/04/04 02:30:20;;;;;;;2.47;1.20;;;;;;;-0.33;100.00;100806.34;5057760;28;20509;-74
2024/04/04 02:32:48;;;;;;;2.97;1.60;;;;;;;-0.34;100.00;100802.88;5057922;28;20034;-73
2024/04/04 02:35:14;;;;;;;2.92;1.08;;;;;;;-0.36;100.00;100798.69;5074570;28;20035;-77
2024/04/04 02:37:39;;;;;;;1.52;1.02;;;;;;;-0.57;100.00;100773.06;5074260;28;20125;-77
2024/04/04 02:40:05;;;;;;;3.30;1.23;;;;;;;-0.37;100.00;100799.66;5092216;28;20081;-72
2024/04/04 02:42:31;;;;;;;4.25;1.52;;;;;;;-0.35;100.00;100798.56;5040604;28;20580;-75
2024/04/04 02:44:56;;;;;;;2.67;1.05;;;;;;;-0.38;100.00;100793.53;5074041;28;20050;-79
2024/04/04 02:47:22;;;;;;;3.03;0.90;;;;;;;-0.37;100.00;100783.78;5073649;28;20061;-73
2024/04/04 02:49:49;;;;;;;2.50;0.90;;;;;;;-0.74;100.00;100721.63;5074012;28;20032;-75
2024/04/04 02:52:15;;;;;;;2.30;1.10;;;;;;;-0.38;100.00;100767.09;5074609;28;20023;-73
2024/04/04 02:54:40;;;;;;;2.53;1.20;;;;;;;-0.41;100.00;100775.28;5057201;28;20044;-74
2024/04/04 02:57:06;;;;;;;1.80;1.00;;;;;;;-0.39;100.00;100780.44;5074067;28;20024;-83
2024/04/04 02:59:31;;;;;;;2.45;1.20;;;;;;;-0.37;100.00;100767.91;5074276;28;20509;-75
2024/04/04 03:01:56;;;;;;;3.55;1.30;;;;;;;-0.39;100.00;100765.41;5074080;28;20035;-82
2024/04/04 03:04:24;;;;;;;1.58;1.05;;;;;;;-0.38;100.00;100760.97;5074294;28;20486;-81
2024/04/04 03:06:53;;;;;;;1.73;1.10;;;;;;;-0.40;100.00;100765.53;5073797;28;20028;-75
2024/04/04 03:09:18;;;;;;;2.50;1.17;;;;;;;-0.45;100.00;100742.16;5092031;28;20024;-72
2024/04/04 03:11:44;;;;;;;3.50;1.50;;;;;;;-0.32;100.00;100752.53;5092166;28;20028;-76
2024/04/04 03:14:09;;;;;;;2.50;1.10;;;;;;;-0.38;100.00;100745.09;5073717;28;20044;-78
2024/04/04 03:16:34;;;;;;;4.38;1.60;;;;;;;-0.39;100.00;100744.28;5057262;28;20031;-74
2024/04/04 03:19:00;;;;;;;2.72;1.58;;;;;;;-0.62;100.00;100713.66;5073823;28;20051;-73
2024/04/04 03:21:25;;;;;;;2.72;1.02;;;;;;;-0.38;100.00;100750.41;5073815;28;20103;-71
2024/04/04 03:23:51;;;;;;;2.15;1.35;;;;;;;-0.54;100.00;100729.69;5074164;28;20032;-76
2024/04/04 03:26:16;;;;;;;3.33;1.13;;;;;;;-0.44;100.00;100743.81;5091570;28;20028;-72
2024/04/04 03:28:42;;;;;;;2.45;1.13;;;;;;;-0.38;100.00;100738.00;5073870;28;20122;-77
2024/04/04 03:31:08;;;;;;;1.90;1.10;;;;;;;-0.64;100.00;100703.22;5092113;28;20043;-78
2024/04/04 03:33:33;;;;;;;1.80;1.10;;;;;;;-0.41;100.00;100732.97;5074604;28;20024;-72
2024/04/04 03:36:02;;;;;;;4.05;1.33;;;;;;;-0.39;100.00;100728.41;5075384;28;20031;-75
2024/04/04 03:38:28;;;;;;;2.40;1.58;;;;;;;-0.36;100.00;100728.16;5093215;28;20028;-81
2024/04/04 03:40:54;;;;;;;4.45;1.80;;;;;;;-0.40;100.00;100717.94;5059046;28;20036;-76
2024/04/04 03:43:20;;;;;;;5.53;1.30;;;;;;;-0.48;100.00;100697.47;5075910;28;20052;-73
2024/04/04 03:45:45;;;;;;;2.72;1.27;;;;;;;-0.50;100.00;100704.69;5075363;28;20063;-71
2024/04/04 03:48:10;;;;;;;4.18;1.40;;;;;;;-0.42;100.00;100714.63;5075466;28;20089;-71
2024/04/04 03:50:36;;;;;;;3.55;1.42;;;;;;;-0.38;100.00;100711.56;5075822;28;20131;-71
2024/04/04 03:53:01;;;;;;;3.30;1.17;;;;;;;-0.39;100.00;100709.06;5092709;28;20052;-71
2024/04/04 03:55:27;;;;;;;3.88;1.35;;;;;;;-0.43;100.00;100710.28;5076924;28;20428;-71
2024/04/04 03:57:52;;;;;;;2.22;1.30;;;;;;;-0.38;100.00;100708.09;5074605;28;20032;-73
2024/04/04 04:00:17;;;;;;;3.67;1.35;;;;;;;-0.49;100.00;100696.63;5059372;28;20099;-71
2024/04/04 04:02:43;;;;;;;2.40;1.23;;;;;;;-0.41;100.00;100701.25;5076574;28;20039;-74
2024/04/04 04:05:09;;;;;;;4.28;1.40;;;;;;;-0.42;100.00;100701.41;5091492;28;20032;-75
2024/04/04 04:07:34;;;;;;;2.35;1.45;;;;;;;-0.43;100.00;100699.72;5056113;28;20105;-74
2024/04/04 04:09:59;;;;;;;4.28;1.73;;;;;;;-0.44;100.00;100698.03;5073220;28;20110;-80
2024/04/04 04:12:25;;;;;;;3.47;1.70;;;;;;;-0.41;100.00;100697.78;5055924;28;20482;-74
2024/04/04 04:14:50;;;;;;;2.70;1.33;;;;;;;-0.44;100.00;100693.59;5091481;28;20028;-79
2024/04/04 04:17:16;;;;;;;3.25;1.70;;;;;;;-0.39;100.00;100687.94;5072696;28;20036;-76
2024/04/04 04:19:41;;;;;;;2.95;1.30;;;;;;;-0.41;100.00;100681.91;5073799;28;20444;-78
2024/04/04 04:22:06;;;;;;;3.25;1.60;;;;;;;-0.88;100.00;100618.09;5073565;22;20056;-76
2024/04/04 04:24:32;;;;;;;2.72;1.90;;;;;;;-0.40;100.00;100678.28;5014349;28;20431;-77
2024/04/04 04:26:58;;;;;;;3.25;1.40;;;;;;;-0.55;100.00;100654.88;4998237;28;20516;-77
2024/04/04 04:29:23;;;;;;;4.13;1.80;;;;;;;-0.38;100.00;100663.16;5016779;28;20029;-81
2024/04/04 04:31:54;;;;;;;3.63;1.80;;;;;;;-0.78;100.00;100603.16;5031402;28;20408;-79
2024/04/04 04:34:20;;;;;;;2.42;1.55;;;;;;;-0.44;100.00;100690.09;5032901;28;20037;-79
2024/04/04 04:37:00;;;;;;;3.38;1.48;;;;;;;-0.45;100.00;100656.72;5033669;28;20037;-78
2024/04/04 04:39:28;;;;;;;3.83;1.42;;;;;;;-0.41;100.00;100663.41;5034380;28;20052;-80
2024/04/04 04:41:54;;;;;;;4.32;2.03;;;;;;;-0.53;100.00;100633.56;5018439;28;20036;-78
2024/04/04 04:44:19;;;;;;;3.08;1.73;;;;;;;-0.59;100.00;100608.53;5035056;28;20395;-78
2024/04/04 04:46:45;;;;;;;3.72;1.83;;;;;;;-0.38;100.00;100656.06;5049211;28;20037;-78
2024/04/04 04:49:11;;;;;;;4.28;2.00;;;;;;;-1.06;100.00;100544.75;5031825;28;20147;-80
2024/04/04 04:51:36;;;;;;;3.30;1.90;;;;;;;-0.27;100.00;100663.88;5015137;28;20021;-79
2024/04/04 04:54:02;;;;;;;3.58;1.70;;;;;;;-0.35;100.00;100665.53;5032991;28;20021;-77
2024/04/04 04:56:27;;;;;;;3.85;1.85;;;;;;;-0.98;100.00;100546.75;5030225;28;20259;-79
2024/04/04 04:58:52;;;;;;;3.80;2.00;;;;;;;-0.31;100.00;100656.38;5000002;28;20026;-79
2024/04/04 05:01:18;;;;;;;5.05;1.75;;;;;;;-0.99;100.00;100545.91;5016716;28;20510;-79
2024/04/04 05:03:43;;;;;;;3.28;2.00;;;;;;;-0.83;100.00;100577.13;5015705;28;20133;-78
2024/04/04 05:06:10;;;;;;;5.35;2.03;;;;;;;-0.34;100.00;100656.63;5019652;28;20033;-78
2024/04/04 05:08:36;;;;;;;3.55;1.75;;;;;;;-0.39;100.00;100633.25;5019526;28;20049;-78
2024/04/04 05:11:01;;;;;;;5.30;1.63;;;;;;;-0.48;100.00;100637.50;5038152;28;20196;-77
2024/04/04 05:13:28;;;;;;;3.85;1.83;;;;;;;-0.34;100.00;100636.31;5015857;28;20041;-79
2024/04/04 05:15:55;;;;;;;2.58;1.23;;;;;;;-0.54;100.00;100602.84;5001685;28;20478;-79
2024/04/04 05:18:22;;;;;;;3.15;1.50;;;;;;;-0.28;100.00;100649.00;5033615;28;20442;-79
2024/04/04 05:20:47;;;;;;;3.50;1.65;;;;;;;-0.34;100.00;100633.66;5034776;28;20026;-79
2024/04/04 05:23:13;;;;;;;3.15;1.85;;;;;;;-0.47;100.00;100620.66;5001283;28;20057;-79
2024/04/04 05:25:40;;;;;;;5.03;1.60;;;;;;;-0.96;100.00;100535.09;5016310;28;20037;-79
2024/04/04 05:28:06;;;;;;;5.45;1.90;;;;;;;-0.28;100.00;100646.34;5032968;28;20495;-80
2024/04/04 05:30:32;;;;;;;2.63;1.45;;;;;;;-0.19;100.00;100639.44;5033570;28;20223;-75
2024/04/04 05:33:01;;;;;;;3.80;1.70;;;;;;;-0.14;100.00;100636.38;5033327;28;20551;-76
2024/04/04 05:35:30;;;;;;;2.45;1.60;;;;;;;-0.41;100.00;100587.59;5032637;28;20041;-76
2024/04/04 05:37:55;;;;;;;6.40;2.00;;;;;;;-0.15;100.00;100616.22;5017366;28;20034;-76
2024/04/04 05:40:23;;;;;;;4.35;1.80;;;;;;;-0.75;100.00;100519.19;5017188;28;20030;-76
2024/04/04 05:42:48;;;;;;;4.15;1.60;;;;;;;-0.11;100.00;100623.72;5001919;28;20036;-76
2024/04/04 05:45:13;;;;;;;5.10;1.90;;;;;;;-0.08;100.00;100622.63;5035093;28;20037;-76
2024/04/04 05:47:39;;;;;;;3.72;1.77;;;;;;;-0.26;100.00;100574.84;5035213;28;20029;-76
2024/04/04 05:50:05;;;;;;;5.45;1.60;;;;;;;-0.15;100.00;100611.75;5018365;28;20068;-75
2024/04/04 05:52:30;;;;;;;5.60;1.52;;;;;;;-0.72;100.00;100516.28;5018624;28;20037;-78
2024/04/04 05:54:56;;;;;;;2.83;1.40;;;;;;;-0.14;100.00;100612.59;5036694;28;20021;-79
2024/04/04 05:57:21;;;;;;;4.90;2.00;;;;;;;-0.10;100.00;100617.50;5025295;28;20734;-78
2024/04/04 05:59:47;;;;;;;2.95;1.30;;;;;;;-0.50;100.00;100569.88;5005722;28;20033;-78
2024/04/04 06:02:12;;;;;;;3.95;1.92;;;;;;;-0.04;100.00;100621.38;5020529;28;20079;-78
2024/04/04 06:04:39;;;;;;;4.43;1.95;;;;;;;-0.13;100.00;100612.47;5036462;28;20090;-78
2024/04/04 06:07:04;;;;;;;5.13;1.40;;;;;;;-0.13;100.00;100612.47;5038521;28;20032;-78
2024/04/04 06:09:30;;;;;;;4.53;1.30;;;;;;;-0.32;100.00;100556.88;5021045;28;20112;-78
2024/04/04 06:11:55;;;;;;;4.60;1.60;;;;;;;-0.16;100.00;100596.03;5021147;28;20095;-78
2024/04/04 06:14:21;;;;;;;1.70;1.13;;;;;;;-0.20;100.00;100584.88;5020537;28;20037;-78
2024/04/04 06:16:47;;;;;;;4.38;1.20;;;;;;;-0.06;100.00;100584.50;5036785;28;20024;-80
2024/04/04 06:19:12;;;;;;;3.47;1.60;;;;;;;-0.28;100.00;100566.22;5038019;28;20032;-78
2024/04/04 06:21:38;;;;;;;2.55;1.20;;;;;;;-0.03;100.00;100594.81;5006947;28;20033;-78
2024/04/04 06:24:03;;;;;;;1.85;1.10;;;;;;;-0.15;100.00;100595.88;5039696;28;20479;-78
2024/04/04 06:26:29;;;;;;;6.30;1.65;;;;;;;-0.16;100.00;100573.06;5040053;28;20040;-77
2024/04/04 06:28:55;;;;;;;4.90;1.40;;;;;;;-0.12;100.00;100584.22;5039139;28;20244;-77
2024/04/04 06:31:21;;;;;;;4.00;1.08;;;;;;;-0.20;100.00;100579.56;5056979;28;20548;-77
2024/04/04 06:33:47;;;;;;;2.75;1.10;;;;;;;-0.20;100.00;100573.47;5038724;28;20037;-78
2024/04/04 06:36:13;;;;;;;3.00;1.33;;;;;;;-0.59;100.00;100499.34;5055625;28;20040;-78
2024/04/04 06:38:39;;;;;;;2.75;1.20;;;;;;;-0.80;100.00;100468.53;5039370;28;20377;-78
2024/04/04 06:41:04;;;;;;;3.83;1.30;;;;;;;-0.26;100.00;100574.84;5041139;28;20028;-78
2024/04/04 06:43:30;;;;;;;3.50;1.17;;;;;;;-0.21;100.00;100572.63;5038748;28;20489;-78
2024/04/04 06:45:55;;;;;;;3.05;1.20;;;;;;;-0.37;100.00;100567.00;5022027;28;20029;-77
2024/04/04 06:48:20;;;;;;;3.25;1.00;;;;;;;-0.27;100.00;100565.22;5039947;28;20419;-78
2024/04/04 06:50:46;;;;;;;4.13;1.60;;;;;;;-0.49;100.00;100521.34;5039999;28;20033;-77
2024/04/04 06:53:11;;;;;;;3.35;1.42;;;;;;;-0.47;100.00;100530.81;5023385;28;20043;-78
2024/04/04 06:55:37;;;;;;;4.50;1.35;;;;;;;-0.30;100.00;100562.84;5023493;28;20028;-77
2024/04/04 06:58:03;;;;;;;3.38;1.38;;;;;;;-0.79;100.00;100498.47;5023892;28;20395;-80
2024/04/04 07:00:28;;;;;;;3.88;1.50;;;;;;;-0.28;100.00;100553.81;5039442;28;20040;-77
2024/04/04 07:02:54;;;;;;;3.30;1.30;;;;;;;-0.35;100.00;100536.00;5038862;28;20033;-77
2024/04/04 07:05:19;;;;;;;3.40;1.58;;;;;;;-0.47;100.00;100522.03;5039512;28;20135;-77
2024/04/04 07:07:46;;;;;;;5.20;1.38;;;;;;;-1.01;100.00;100436.91;5056377;28;20036;-77
2024/04/04 07:10:11;;;;;;;3.72;1.25;;;;;;;-0.39;100.00;100532.78;5039268;28;20032;-80
2024/04/04 07:12:37;;;;;;;4.10;1.33;;;;;;;-0.61;100.00;100498.63;5055068;28;20470;-78
2024/04/04 07:15:03;;;;;;;3.92;1.50;;;;;;;-0.41;100.00;100547.09;5023061;28;20037;-78
2024/04/04 07:17:29;;;;;;;5.47;1.52;;;;;;;-0.83;100.00;100470.59;5039057;28;20021;-77
2024/04/04 07:19:55;;;;;;;3.42;1.25;;;;;;;-0.47;100.00;100546.66;5039326;28;20033;-77
2024/04/04 07:22:21;;;;;;;2.65;1.52;;;;;;;-0.17;100.00;100557.31;5023601;28;20063;-80
2024/04/04 07:24:47;;;;;;;8.02;1.80;;;;;;;-0.30;100.00;100550.50;5038903;28;20124;-80
2024/04/04 07:27:13;;;;;;;3.97;1.40;;;;;;;-1.21;100.00;100411.41;5037282;28;20445;-79
2024/04/04 07:29:39;;;;;;;2.30;1.00;;;;;;;-0.34;100.00;100558.81;5056439;28;20082;-78
2024/04/04 07:32:07;;;;;;;5.35;1.60;;;;;;;-0.87;100.00;100482.41;5038116;28;20086;-77
2024/04/04 07:34:33;;;;;;;2.47;1.50;;;;;;;-0.39;100.00;100542.53;5027492;28;20041;-77
2024/04/04 07:36:58;;;;;;;3.17;1.40;;;;;;;-0.21;100.00;100555.94;5041081;28;20116;-77
2024/04/04 07:39:25;;;;;;;2.42;1.23;;;;;;;-0.35;100.00;100552.69;5055440;28;20025;-79
2024/04/04 07:41:50;;;;;;;3.55;1.23;;;;;;;-0.49;100.00;100535.41;5052694;28;20036;-79
2024/04/04 07:44:16;;;;;;;5.38;1.60;;;;;;;-0.29;100.00;100554.81;5051808;28;20036;-79
2024/04/04 07:46:41;;;;;;;4.50;1.90;;;;;;;-0.33;100.00;100568.41;5055318;28;20025;-77
2024/04/04 07:49:08;;;;;;;6.78;1.60;;;;;;;-0.33;100.00;100553.41;5036278;28;20078;-80
2024/04/04 07:51:34;;;;;;;5.85;1.75;;;;;;;-0.29;100.00;100569.84;5034981;28;20510;-79
2024/04/04 07:54:01;;;;;;;6.85;1.60;;;;;;;-1.37;100.00;100384.66;5018514;28;20025;-80
2024/04/04 07:56:26;;;;;;;5.40;1.50;;;;;;;-0.92;100.00;100471.44;5052251;28;20033;-80
2024/04/04 07:58:52;;;;;;;6.38;1.67;;;;;;;-0.43;100.00;100547.25;5034743;28;20545;-79
2024/04/04 08:01:18;;;;;;;5.70;1.60;;;;;;;-0.77;100.00;100507.91;5035127;28;20059;-79
2024/04/04 08:03:47;;;;;;;3.47;1.88;;;;;;;-0.55;100.00;100543.03;5019051;28;20087;-79
2024/04/04 08:06:13;;;;;;;3.92;1.65;;;;;;;-0.52;100.00;100534.84;5034566;28;20029;-80
2024/04/04 08:08:39;;;;;;;4.00;1.30;;;;;;;-0.50;100.00;100546.97;5036548;28;20025;-78
2024/04/04 08:11:06;;;;;;;6.03;1.73;;;;;;;-1.16;100.00;100434.75;5037811;28;20025;-79
2024/04/04 08:13:32;;;;;;;4.93;1.45;;;;;;;-0.77;100.00;100507.06;5020642;28;20064;-79
2024/04/04 08:15:57;;;;;;;4.38;1.63;;;;;;;-0.24;100.00;100552.56;5055689;28;20025;-77
2024/04/04 08:18:23;;;;;;;5.53;2.30;;;;;;;-0.31;100.00;100551.44;5055216;28;20033;-80
2024/04/04 08:20:48;;;;;;;4.05;1.50;;;;;;;-0.20;100.00;100550.50;5054387;28;20104;-79
2024/04/04 08:23:13;;;;;;;3.72;1.52;;;;;;;-0.23;100.00;100545.50;5035916;28;20041;-80
2024/04/04 08:25:40;;;;;;;4.07;1.83;;;;;;;-1.02;100.00;100419.41;5052317;28;20453;-77
2024/04/04 08:28:05;;;;;;;3.47;1.48;;;;;;;-0.32;100.00;100518.06;5055651;28;20039;-80
2024/04/04 08:30:31;;;;;;;4.05;1.70;;;;;;;-0.15;100.00;100542.16;5042848;28;20127;-79
2024/04/04 08:32:57;;;;;;;3.78;1.73;;;;;;;-0.20;100.00;100545.19;5035272;28;20407;-80
2024/04/04 08:35:23;;;;;;;4.28;1.80;;;;;;;-0.65;100.00;100450.50;5052395;28;20041;-80
2024/04/04 08:37:48;;;;;;;5.22;1.83;;;;;;;-0.05;100.00;100527.97;5034996;28;20128;-80
2024/04/04 08:40:16;;;;;;;7.18;1.63;;;;;;;-0.09;100.00;100513.38;5053664;28;20173;-80
2024/04/04 08:42:42;;;;;;;4.70;1.60;;;;;;;-0.06;100.00;100515.75;5056782;28;20055;-80
2024/04/04 08:45:13;;;;;;;4.03;1.45;;;;;;;-0.03;100.00;100523.41;5041236;28;20020;-80
2024/04/04 08:47:42;;;;;;;5.47;1.70;;;;;;;-0.21;100.00;100466.84;5039793;28;20037;-80
2024/04/04 08:50:08;;;;;;;7.03;1.88;;;;;;;0.36;100.00;100522.56;5038207;28;20039;-79
2024/04/04 08:52:34;;;;;;;5.47;2.03;;;;;;;0.49;100.00;100522.28;5038964;28;20025;-79
2024/04/04 08:55:00;;;;;;;3.40;1.48;;;;;;;0.21;100.00;100524.81;5038686;28;20029;-79
2024/04/04 08:57:26;;;;;;;5.18;1.90;;;;;;;0.20;100.00;100523.16;5038161;28;20706;-79
2024/04/04 08:59:58;;;;;;;4.60;1.63;;;;;;;-0.19;100.00;100483.44;5056631;28;20033;-77
2024/04/04 09:02:26;;;;;;;4.65;2.15;;;;;;;0.36;100.00;100512.81;5058074;28;20139;-79
2024/04/04 09:05:03;;;;;;;6.18;1.75;;;;;;;-0.35;100.00;100412.59;5038754;28;20028;-79
2024/04/04 09:07:28;;;;;;;3.70;1.50;;;;;;;0.40;100.00;100508.94;5037926;28;20021;-79
2024/04/04 09:09:53;;;;;;;5.05;1.63;;;;;;;0.33;100.00;100502.53;5055054;28;20036;-79
2024/04/04 09:12:19;;;;;;;4.45;1.65;;;;;;;0.02;100.00;100425.09;5038648;28;20470;-81
2024/04/04 09:14:58;;;;;;;5.57;1.80;;;;;;;0.62;100.00;100485.75;5056299;28;20144;-78
2024/04/04 09:17:24;;;;;;;4.10;1.70;;;;;;;0.05;100.00;100384.31;5039984;28;20029;-81
2024/04/04 09:19:56;;;;;;;4.45;1.50;;;;;;;0.62;100.00;100483.09;5039933;28;20032;-81
2024/04/04 09:22:23;;;;;;;8.73;1.85;;;;;;;0.59;100.00;100486.03;5039860;28;20103;-82
2024/04/04 09:24:49;;;;;;;4.00;1.40;;;;;;;0.74;100.00;100492.56;5061836;28;20029;-81
2024/04/04 09:27:20;;;;;;;3.53;1.38;;;;;;;0.81;100.00;100476.94;5060514;28;20063;-81
2024/04/04 09:29:46;;;;;;;3.28;1.58;;;;;;;0.53;100.00;100476.00;5057541;28;20044;-81
2024/04/04 09:32:17;;;;;;;4.70;1.60;;;;;;;0.26;100.00;100418.53;5040207;28;20032;-82
2024/04/04 09:34:45;;;;;;;6.43;1.70;;;;;;;0.53;100.00;100445.09;5056392;28;20029;-80
2024/04/04 09:37:13;;;;;;;4.45;1.50;;;;;;;0.79;100.00;100492.94;5056575;28;20514;-80
2024/04/04 09:39:40;;;;;;;7.85;1.55;;;;;;;0.89;100.00;100467.28;5039904;28;20479;-80
2024/04/04 09:42:08;;;;;;;6.10;1.40;;;;;;;0.63;100.00;100439.75;5040278;28;20754;-80
2024/04/04 09:44:33;;;;;;;3.55;1.63;;;;;;;0.73;100.00;100458.25;5040247;28;20029;-80
2024/04/04 09:47:03;;;;;;;6.93;1.70;;;;;;;1.00;100.00;100473.38;5038723;28;20107;-80
2024/04/04 09:49:30;;;;;;;4.35;1.20;;;;;;;0.79;100.00;100471.75;5039661;28;20029;-80
2024/04/04 09:51:59;;;;;;;4.40;1.52;;;;;;;0.75;100.00;100429.84;5057073;28;20028;-80
2024/04/04 09:54:26;;;;;;;2.55;0.90;;;;;;;0.92;100.00;100455.56;5038597;28;20120;-80
2024/04/04 09:56:52;;;;;;;3.53;1.42;;;;;;;1.04;100.00;100470.28;5040554;28;20037;-80
2024/04/04 09:59:30;;;;;;;2.67;1.15;;;;;;;0.90;100.00;100442.47;5042294;28;20044;-80
2024/04/04 10:02:02;;;;;;;3.03;1.38;;;;;;;0.65;100.00;100419.28;5062571;28;20032;-82
2024/04/04 10:04:37;;;;;;;5.53;1.40;;;;;;;0.92;100.00;100464.31;5054267;28;20033;-81
2024/04/04 10:07:04;;;;;;;2.75;1.13;;;;;;;0.68;100.00;100432.22;5059207;28;20033;-81
2024/04/04 10:09:40;;;;;;;3.58;1.20;;;;;;;0.88;100.00;100455.00;5045529;28;20044;-81
2024/04/04 10:12:15;;;;;;;3.35;1.35;;;;;;;0.97;100.00;100455.97;5059259;28;20083;-81
2024/04/04 10:14:50;;;;;;;;;;;;;;;0.96;100.00;100464.03;5043999;28;20158;-81
2024/04/04 10:17:16;;;;;;;4.90;1.40;;;;;;;0.93;100.00;100442.19;5026238;28;20473;-81
2024/04/04 10:19:45;;;;;;;3.83;1.30;;;;;;;1.10;100.00;100460.94;5047968;28;20071;-80
2024/04/04 10:22:16;;;;;;;2.55;1.20;;;;;;;1.01;100.00;100453.84;5041573;28;20055;-80
2024/04/04 10:24:41;;;;;;;4.28;1.73;;;;;;;1.12;100.00;100446.53;5043171;28;20084;-80
2024/04/04 10:27:08;;;;;;;4.03;1.70;;;;;;;1.04;100.00;100416.47;5044721;28;20032;-79
2024/04/04 10:29:38;;;;;;;2.53;1.17;;;;;;;1.25;100.00;100446.19;5047242;28;20035;-80
2024/04/04 10:32:06;;;;;;;4.60;1.33;;;;;;;1.27;100.00;100443.41;5065696;28;20496;-81
2024/04/04 10:34:33;;;;;;;2.30;1.40;;;;;;;1.21;100.00;100402.44;5049798;28;20035;-80
2024/04/04 10:37:00;;;;;;;3.65;1.98;;;;;;;1.45;100.00;100440.78;5049025;28;20068;-80
2024/04/04 10:39:26;;;;;;;5.68;2.58;;;;;;;1.68;100.00;100441.19;5033442;28;20017;-80
2024/04/04 10:41:54;;;;;;;2.80;1.35;;;;;;;1.70;100.00;100445.38;5044416;28;20040;-81
2024/04/04 10:44:40;;;;;;;3.38;1.20;;;;;;;1.97;100.00;100428.53;5067014;28;20021;-81
2024/04/04 10:47:07;;;;;;;2.67;1.17;;;;;;;1.56;100.00;100384.91;5071331;28;20118;-81
2024/04/04 10:49:33;;;;;;;3.90;1.02;;;;;;;1.45;100.00;100371.84;5052388;28;20029;-81
2024/04/04 10:52:00;;;;;;;4.50;1.10;;;;;;;1.69;100.00;100433.09;5055200;28;20052;-81
2024/04/04 10:54:27;;;;;;;2.08;0.88;;;;;;;1.44;100.00;100392.25;5057692;28;20017;-82
2024/04/04 10:57:31;;;;;;;2.97;1.30;;;;;;;1.74;100.00;100433.47;5059073;28;20025;-82
2024/04/04 11:00:16;;;;;;;1.70;0.88;;;;;;;1.84;100.00;100428.09;5059632;28;20084;-81
2024/04/04 11:02:44;;;;;;;1.92;1.15;;;;;;;1.83;100.00;100432.56;5077193;28;20542;-81
2024/04/04 11:05:10;;;;;;;2.97;1.00;;;;;;;1.38;100.00;100406.91;5042920;28;20088;-81
2024/04/04 11:07:38;;;;;;;3.72;1.10;;;;;;;1.71;100.00;100422.34;5075275;22;20056;-80
2024/04/04 11:10:06;;;;;;;4.50;0.90;;;;;;;1.88;100.00;100421.50;5124608;28;20057;-74
2024/04/04 11:12:32;;;;;;;1.63;0.95;;;;;;;1.46;100.00;100400.88;5103083;28;20037;-73
2024/04/04 11:15:00;;;;;;;4.25;1.20;;;;;;;1.64;100.00;100404.38;5120211;28;20035;-71
2024/04/04 11:17:26;;;;;;;2.90;1.20;;;;;;;1.76;100.00;100426.22;5126054;28;20169;-71